Terminal Aerodrome Forecast
Issued by NWS

Home | Current Version | Previous Version | Graphics & Text | Print | Product List | Glossary On
Versions: 1 2 3 4 5 6 7 8 9 10 11 12 13
000
FTUS43 KOAX 221720
TAFCDR
TAF
KCDR 221720Z 2218/2318 25015G25KT P6SM BKN250
     FM230000 26012KT P6SM VCSH SCT040 BKN070
     FM230500 29012G22KT P6SM -SHRA SCT020 BKN050
     FM230900 29014G25KT 3SM -SN SCT015 OVC030=

USA.gov is the U.S. government's official web portal to all federal, state and local government web resources and services.